Time;durP1;ratioP1;P1;durP2;ratioP2;P2;SDS_P1;SDS_P2;PMS_P1;PMS_P2;Temp;Humidity;BMP_temperature;BMP_pressure;BME280_temperature;BME280_humidity;BME280_pressure;Samples;Min_cycle;Max_cycle;Signal;HPM_P1;HPM_P2
2021/11/25 00:00:18;;;;;;;7.97;7.15;;;16.90;65.40;;;;;;5034197;28;20079;-25
2021/11/25 00:02:44;;;;;;;7.97;7.20;;;16.90;65.30;;;;;;5033979;28;20498;-30
2021/11/25 00:05:10;;;;;;;7.35;6.65;;;16.90;65.30;;;;;;5030666;28;20045;-23
2021/11/25 00:07:36;;;;;;;10.70;7.13;;;16.90;65.20;;;;;;5014640;28;20125;-22
2021/11/25 00:10:02;;;;;;;7.30;6.70;;;16.90;65.20;;;;;;5015731;28;20099;-32
2021/11/25 00:12:27;;;;;;;7.88;7.07;;;16.90;65.20;;;;;;5034648;28;20041;-28
2021/11/25 00:14:53;;;;;;;7.40;6.80;;;16.90;65.20;;;;;;5033854;28;20041;-27
2021/11/25 00:17:18;;;;;;;7.13;6.15;;;16.90;65.10;;;;;;5034287;28;20111;-25
2021/11/25 00:19:44;;;;;;;7.30;6.60;;;16.90;65.10;;;;;;5034408;28;20088;-25
2021/11/25 00:22:10;;;;;;;7.28;6.68;;;16.90;65.10;;;;;;5033790;28;20042;-28
2021/11/25 00:24:35;;;;;;;6.85;6.15;;;16.90;64.90;;;;;;5049820;28;20574;-30
2021/11/25 00:27:01;;;;;;;7.25;6.55;;;16.90;64.90;;;;;;5033244;28;20059;-27
2021/11/25 00:29:27;;;;;;;6.57;5.97;;;16.90;64.90;;;;;;5034258;28;20064;-23
2021/11/25 00:31:52;;;;;;;7.18;5.90;;;16.90;65.00;;;;;;5033569;28;20048;-27
2021/11/25 00:34:18;;;;;;;6.10;5.70;;;16.90;64.90;;;;;;5033668;28;20045;-30
2021/11/25 00:36:43;;;;;;;5.95;5.45;;;16.80;64.90;;;;;;5034196;28;20128;-27
2021/11/25 00:39:09;;;;;;;5.85;5.35;;;16.80;64.80;;;;;;5033131;28;20038;-24
2021/11/25 00:41:34;;;;;;;5.93;5.43;;;16.80;64.80;;;;;;5034223;28;20037;-26
2021/11/25 00:44:00;;;;;;;5.80;5.30;;;16.80;64.80;;;;;;5033382;28;20033;-25
2021/11/25 00:46:26;;;;;;;5.53;5.13;;;16.80;64.80;;;;;;5034112;28;20570;-23
2021/11/25 00:48:51;;;;;;;7.13;5.32;;;16.80;64.70;;;;;;5033078;28;20513;-25
2021/11/25 00:51:17;;;;;;;5.90;5.28;;;16.80;64.80;;;;;;5033910;28;20041;-24
2021/11/25 00:53:43;;;;;;;6.15;5.55;;;16.80;64.70;;;;;;5033847;28;20533;-25
2021/11/25 00:56:08;;;;;;;6.07;5.57;;;16.80;64.60;;;;;;5033375;28;20041;-26
2021/11/25 00:58:34;;;;;;;5.63;5.13;;;16.80;64.60;;;;;;5033624;28;20037;-33
2021/11/25 01:00:59;;;;;;;5.57;5.03;;;16.70;64.60;;;;;;5033430;28;20045;-33
2021/11/25 01:03:25;;;;;;;6.45;5.00;;;16.80;64.60;;;;;;5033873;28;20040;-28
2021/11/25 01:05:50;;;;;;;5.57;5.13;;;16.80;64.60;;;;;;5033268;28;20038;-26
2021/11/25 01:08:16;;;;;;;5.93;5.32;;;16.70;64.50;;;;;;5033445;28;20383;-28
2021/11/25 01:10:42;;;;;;;5.53;5.13;;;16.80;64.60;;;;;;5033715;28;20042;-26
2021/11/25 01:13:08;;;;;;;5.72;5.22;;;16.80;64.50;;;;;;5033114;28;20069;-27
2021/11/25 01:15:34;;;;;;;4.75;4.35;;;16.80;64.40;;;;;;5033851;28;20061;-28
2021/11/25 01:18:04;;;;;;;5.47;5.05;;;16.80;64.70;;;;;;5033123;28;20041;-22
2021/11/25 01:20:30;;;;;;;4.95;4.55;;;16.80;64.30;;;;;;5033509;28;20405;-28
2021/11/25 01:22:56;;;;;;;4.60;4.30;;;16.80;64.40;;;;;;5035770;28;20104;-23
2021/11/25 01:25:22;;;;;;;4.90;4.60;;;16.80;64.30;;;;;;5053771;28;20084;-22
2021/11/25 01:27:47;;;;;;;4.53;4.22;;;16.80;64.30;;;;;;5053420;28;20124;-25
2021/11/25 01:30:13;;;;;;;4.88;4.47;;;16.80;64.20;;;;;;5051551;28;20399;-24
2021/11/25 01:32:39;;;;;;;4.00;3.70;;;16.80;64.30;;;;;;5053707;28;20048;-22
2021/11/25 01:35:05;;;;;;;5.00;4.63;;;16.80;64.30;;;;;;5052734;28;20490;-25
2021/11/25 01:37:31;;;;;;;4.22;3.92;;;16.70;64.30;;;;;;5053702;28;20044;-28
2021/11/25 01:39:56;;;;;;;4.30;4.00;;;16.80;64.30;;;;;;5052144;28;20128;-25
2021/11/25 01:42:23;;;;;;;4.30;4.00;;;16.80;64.20;;;;;;5053429;28;20132;-29
2021/11/25 01:44:48;;;;;;;4.20;3.92;;;16.80;64.10;;;;;;5046060;28;20057;-28
2021/11/25 01:47:14;;;;;;;4.25;3.95;;;16.80;64.10;;;;;;5035473;28;20048;-27
2021/11/25 01:49:39;;;;;;;5.03;4.57;;;16.80;64.00;;;;;;5036909;28;20033;-28
2021/11/25 01:52:05;;;;;;;4.28;4.00;;;16.80;64.10;;;;;;5036740;28;20037;-27
2021/11/25 01:54:31;;;;;;;3.80;3.50;;;16.80;64.10;;;;;;5037016;28;20033;-25
2021/11/25 01:56:57;;;;;;;4.05;3.75;;;16.80;64.00;;;;;;5036517;28;20041;-27
2021/11/25 01:59:22;;;;;;;3.75;3.45;;;16.80;64.00;;;;;;5036765;28;20717;-28
2021/11/25 02:01:48;;;;;;;3.80;3.50;;;16.80;63.90;;;;;;5037246;28;20049;-28
2021/11/25 02:04:14;;;;;;;3.28;3.08;;;16.80;63.90;;;;;;5036391;28;20545;-28
2021/11/25 02:06:40;;;;;;;4.00;3.72;;;16.80;63.80;;;;;;5036800;28;20041;-26
2021/11/25 02:09:06;;;;;;;3.70;3.40;;;16.80;63.80;;;;;;5035793;28;20037;-30
2021/11/25 02:11:31;;;;;;;3.70;3.50;;;16.80;63.70;;;;;;5036866;28;20068;-29
2021/11/25 02:13:57;;;;;;;3.45;3.25;;;16.80;63.70;;;;;;5036152;28;20058;-27
2021/11/25 02:16:23;;;;;;;3.70;3.50;;;16.80;63.70;;;;;;5036648;28;20045;-27
2021/11/25 02:18:48;;;;;;;4.45;4.15;;;16.80;63.60;;;;;;5036689;28;20072;-29
2021/11/25 02:21:14;;;;;;;3.55;3.35;;;16.80;63.60;;;;;;5035877;28;20045;-27
2021/11/25 02:23:40;;;;;;;3.55;3.35;;;16.80;63.60;;;;;;5045455;28;20036;-30
2021/11/25 02:26:05;;;;;;;3.75;3.30;;;16.80;63.60;;;;;;5055744;28;20051;-25
2021/11/25 02:28:33;;;;;;;3.80;3.60;;;16.80;63.40;;;;;;5056636;28;20044;-25
2021/11/25 02:30:59;;;;;;;3.55;3.25;;;16.80;63.60;;;;;;5055694;28;20098;-28
2021/11/25 02:33:24;;;;;;;3.90;3.60;;;16.80;63.60;;;;;;5056497;28;20048;-26
2021/11/25 02:35:50;;;;;;;3.60;3.40;;;16.80;63.40;;;;;;5056343;28;20047;-25
2021/11/25 02:38:16;;;;;;;3.30;3.00;;;16.80;63.60;;;;;;5055437;28;20041;-26
2021/11/25 02:40:43;;;;;;;3.33;3.13;;;16.80;63.60;;;;;;5056245;28;20041;-29
2021/11/25 02:43:10;;;;;;;3.42;3.22;;;16.80;63.40;;;;;;5055408;28;20049;-26
2021/11/25 02:45:47;;;;;;;3.65;3.45;;;16.80;63.40;;;;;;5042333;28;20061;-27
2021/11/25 02:48:13;;;;;;;3.00;2.80;;;16.80;63.40;;;;;;5035445;28;20336;-25
2021/11/25 02:50:38;;;;;;;3.15;2.95;;;16.80;63.30;;;;;;5035843;28;20522;-25
2021/11/25 02:53:04;;;;;;;3.30;3.10;;;16.80;63.30;;;;;;5035350;28;20461;-26
2021/11/25 02:55:29;;;;;;;2.92;2.83;;;16.80;63.20;;;;;;5036009;28;20041;-28
2021/11/25 02:57:55;;;;;;;3.45;3.25;;;16.80;63.20;;;;;;5035112;28;20045;-29
2021/11/25 03:00:21;;;;;;;3.42;3.22;;;16.80;63.20;;;;;;5015915;28;20099;-26
2021/11/25 03:02:52;;;;;;;3.15;2.95;;;16.80;63.20;;;;;;5016124;28;20049;-25
2021/11/25 03:05:18;;;;;;;3.10;2.90;;;16.80;63.20;;;;;;5015651;28;20092;-28
2021/11/25 03:07:44;;;;;;;3.20;3.00;;;16.80;63.30;;;;;;5015826;28;20043;-24
2021/11/25 03:10:09;;;;;;;2.90;2.70;;;16.80;63.20;;;;;;5014884;28;20124;-31
2021/11/25 03:12:35;;;;;;;3.20;3.00;;;16.80;63.10;;;;;;5015901;28;20045;-29
2021/11/25 03:15:00;;;;;;;2.83;2.65;;;16.80;63.20;;;;;;5015258;28;20092;-26
2021/11/25 03:17:26;;;;;;;2.90;2.70;;;16.80;63.20;;;;;;5015982;28;20042;-27
2021/11/25 03:19:51;;;;;;;2.90;2.72;;;16.80;63.10;;;;;;5015331;28;20125;-26
2021/11/25 03:22:17;;;;;;;2.63;2.53;;;16.80;62.90;;;;;;5015227;28;20129;-29
2021/11/25 03:24:43;;;;;;;2.90;2.70;;;16.80;62.90;;;;;;5050749;28;20045;-26
2021/11/25 03:27:08;;;;;;;2.72;2.63;;;16.80;62.80;;;;;;5054679;28;20056;-23
2021/11/25 03:29:34;;;;;;;2.67;2.58;;;16.80;62.80;;;;;;5055599;28;20140;-23
2021/11/25 03:31:59;;;;;;;3.05;2.95;;;16.90;62.80;;;;;;5054318;28;20087;-31
2021/11/25 03:34:25;;;;;;;2.95;2.75;;;16.80;62.80;;;;;;5055338;28;20045;-24
2021/11/25 03:36:50;;;;;;;3.08;2.88;;;16.80;63.60;;;;;;5055159;28;20025;-35
2021/11/25 03:39:16;;;;;;;2.88;2.70;;;16.80;62.80;;;;;;5054364;28;20721;-24
2021/11/25 03:41:42;;;;;;;3.03;2.83;;;16.80;62.80;;;;;;5055105;28;20040;-25
2021/11/25 03:44:07;;;;;;;2.42;2.33;;;16.80;62.80;;;;;;5052732;28;20620;-23
2021/11/25 03:46:35;;;;;;;2.65;2.45;;;16.80;62.90;;;;;;5034868;28;20041;-28
2021/11/25 03:49:01;;;;;;;2.80;2.70;;;16.80;62.80;;;;;;5034157;28;20053;-29
2021/11/25 03:51:27;;;;;;;2.65;2.55;;;16.80;62.80;;;;;;5035018;28;20052;-24
2021/11/25 03:53:52;;;;;;;2.70;2.60;;;16.80;62.70;;;;;;5034903;28;20152;-22
2021/11/25 03:56:18;;;;;;;2.75;2.58;;;16.80;62.70;;;;;;5034078;28;20038;-27
2021/11/25 03:58:44;;;;;;;2.70;2.50;;;16.80;62.70;;;;;;5034863;28;20636;-22
2021/11/25 04:01:09;;;;;;;2.60;2.50;;;16.80;62.70;;;;;;5033824;28;20072;-28
2021/11/25 04:03:35;;;;;;;2.65;2.45;;;16.80;62.70;;;;;;5034883;28;20127;-25
2021/11/25 04:06:00;;;;;;;2.17;2.08;;;16.80;62.60;;;;;;5033979;28;20082;-29
2021/11/25 04:08:26;;;;;;;2.50;2.40;;;16.80;62.70;;;;;;5033894;28;20075;-28
2021/11/25 04:10:52;;;;;;;2.40;2.30;;;16.80;62.80;;;;;;5034051;28;20060;-23
2021/11/25 04:13:17;;;;;;;2.38;2.28;;;16.80;62.70;;;;;;5034078;28;20049;-24
2021/11/25 04:15:43;;;;;;;2.38;2.28;;;16.80;62.60;;;;;;5034372;28;20050;-29
2021/11/25 04:18:09;;;;;;;2.28;2.17;;;16.80;62.60;;;;;;5033832;28;20048;-30
2021/11/25 04:20:35;;;;;;;2.30;2.20;;;16.80;62.60;;;;;;5034306;28;20044;-29
2021/11/25 04:23:02;;;;;;;2.25;2.15;;;16.80;62.50;;;;;;5036954;28;20099;-24
2021/11/25 04:25:27;;;;;;;2.35;2.25;;;16.80;62.50;;;;;;5054561;28;20040;-21
2021/11/25 04:27:53;;;;;;;2.42;2.33;;;16.80;62.50;;;;;;5054295;28;20040;-27
2021/11/25 04:37:59;;;;;;;2.50;2.40;;;16.80;62.50;;;;;;5054151;28;20041;-26
2021/11/25 04:40:25;;;;;;;2.15;2.05;;;16.80;62.50;;;;;;5053472;28;20047;-29
2021/11/25 04:42:51;;;;;;;1.95;1.85;;;16.80;62.50;;;;;;5053747;28;20509;-27
2021/11/25 04:45:16;;;;;;;2.45;2.35;;;16.70;62.40;;;;;;5042048;28;20651;-26
2021/11/25 04:47:42;;;;;;;2.08;1.98;;;16.80;62.50;;;;;;5034013;28;20075;-31
2021/11/25 04:50:08;;;;;;;2.00;1.90;;;16.80;62.40;;;;;;5033373;28;20128;-28
2021/11/25 04:52:33;;;;;;;2.28;2.17;;;16.80;62.40;;;;;;5033810;28;20506;-21
2021/11/25 04:54:59;;;;;;;2.30;2.20;;;16.70;62.40;;;;;;5033732;28;20068;-28
2021/11/25 04:57:25;;;;;;;2.22;2.13;;;16.80;62.40;;;;;;5033195;28;20091;-25
2021/11/25 04:59:51;;;;;;;2.17;2.08;;;16.70;62.40;;;;;;5033745;28;20045;-25
2021/11/25 05:02:17;;;;;;;1.85;1.75;;;16.80;62.40;;;;;;5033014;28;20037;-24
2021/11/25 05:04:43;;;;;;;2.00;1.90;;;16.80;62.30;;;;;;5033893;28;20197;-24
2021/11/25 05:07:08;;;;;;;2.40;2.30;;;16.80;62.30;;;;;;5033255;28;20151;-32
2021/11/25 05:09:34;;;;;;;1.90;1.80;;;16.70;62.20;;;;;;5033266;28;20052;-27
2021/11/25 05:11:59;;;;;;;1.73;1.63;;;16.70;62.40;;;;;;5033644;28;20037;-29
2021/11/25 05:14:25;;;;;;;1.80;1.70;;;16.70;62.20;;;;;;5033250;28;20041;-23
2021/11/25 05:16:51;;;;;;;2.10;2.00;;;16.70;62.20;;;;;;5033904;28;20120;-30
2021/11/25 05:19:17;;;;;;;1.80;1.70;;;16.80;62.20;;;;;;5032812;28;20037;-23
2021/11/25 05:21:43;;;;;;;1.83;1.73;;;16.70;62.10;;;;;;5030841;28;20575;-29
2021/11/25 05:24:09;;;;;;;1.48;1.48;;;16.70;62.20;;;;;;5044008;28;20513;-25
2021/11/25 05:26:34;;;;;;;1.40;1.40;;;16.70;62.20;;;;;;5057821;28;20071;-25
2021/11/25 05:29:00;;;;;;;1.80;1.70;;;16.70;62.10;;;;;;5057681;28;20033;-28
2021/11/25 05:31:26;;;;;;;1.80;1.70;;;16.70;62.10;;;;;;5056998;28;20582;-24
2021/11/25 05:33:51;;;;;;;1.77;1.67;;;16.70;62.10;;;;;;5057485;28;20155;-25
2021/11/25 05:36:18;;;;;;;1.83;1.73;;;16.70;62.10;;;;;;5056608;28;20049;-27
2021/11/25 05:38:43;;;;;;;2.03;1.92;;;16.70;62.10;;;;;;5057321;28;20052;-26
2021/11/25 05:41:09;;;;;;;1.70;1.60;;;16.70;62.10;;;;;;5055179;28;20040;-25
2021/11/25 05:43:35;;;;;;;2.15;2.05;;;16.70;62.10;;;;;;5057330;28;20040;-28
2021/11/25 05:46:00;;;;;;;2.10;2.00;;;16.70;62.40;;;;;;5040034;28;20062;-25
2021/11/25 05:48:27;;;;;;;2.00;1.90;;;16.70;62.60;;;;;;5036740;28;20076;-28
2021/11/25 05:50:52;;;;;;;1.85;1.75;;;16.70;62.40;;;;;;5037144;28;20046;-22
2021/11/25 05:53:18;;;;;;;1.70;1.60;;;16.70;62.40;;;;;;5036299;28;20045;-23
2021/11/25 05:55:44;;;;;;;1.80;1.70;;;16.70;62.50;;;;;;5037367;28;20482;-31
2021/11/25 05:58:10;;;;;;;2.08;1.98;;;16.70;62.50;;;;;;5036267;28;20034;-27
2021/11/25 06:00:35;;;;;;;1.67;1.58;;;16.70;62.60;;;;;;5035846;28;20383;-28
2021/11/25 06:03:01;;;;;;;1.60;1.60;;;16.70;62.60;;;;;;5036903;28;20038;-26
2021/11/25 06:05:27;;;;;;;1.60;1.50;;;16.70;62.60;;;;;;5036256;28;20037;-28
2021/11/25 06:07:53;;;;;;;1.80;1.70;;;16.70;62.60;;;;;;5036755;28;20037;-25
2021/11/25 06:10:20;;;;;;;1.60;1.50;;;16.70;62.70;;;;;;5027660;28;20045;-29
2021/11/25 06:12:46;;;;;;;1.65;1.55;;;16.70;62.60;;;;;;5017094;28;20033;-22
2021/11/25 06:15:12;;;;;;;2.10;1.90;;;16.60;62.60;;;;;;5021315;28;20050;-28
2021/11/25 06:17:38;;;;;;;1.80;1.70;;;16.70;62.70;;;;;;5017208;28;20042;-24
2021/11/25 06:20:10;;;;;;;1.95;1.85;;;16.60;62.60;;;;;;5023289;28;20710;-23
2021/11/25 06:22:36;;;;;;;1.50;1.40;;;16.70;62.60;;;;;;5051146;28;20179;-32
2021/11/25 06:25:02;;;;;;;1.75;1.65;;;16.70;62.50;;;;;;5054434;28;20065;-28
2021/11/25 06:27:28;;;;;;;1.70;1.60;;;16.70;62.60;;;;;;5054727;28;20108;-30
2021/11/25 06:29:53;;;;;;;2.25;1.48;;;16.70;62.50;;;;;;5055417;28;20095;-30
2021/11/25 06:32:19;;;;;;;1.70;1.60;;;16.70;62.40;;;;;;5050072;28;20446;-27
2021/11/25 06:34:44;;;;;;;2.22;1.48;;;16.70;62.40;;;;;;5055218;28;20219;-27
2021/11/25 06:37:10;;;;;;;1.80;1.70;;;16.70;62.40;;;;;;5053477;28;20045;-26
2021/11/25 06:39:36;;;;;;;2.17;1.80;;;16.70;62.40;;;;;;5055143;28;20032;-34
2021/11/25 06:42:02;;;;;;;4.15;1.83;;;16.70;62.40;;;;;;5055691;28;20041;-29
2021/11/25 06:44:27;;;;;;;1.80;1.70;;;16.70;62.40;;;;;;5036674;28;20509;-29
2021/11/25 06:46:53;;;;;;;1.77;1.67;;;16.70;62.50;;;;;;5055433;28;20056;-25
2021/11/25 06:49:18;;;;;;;1.83;1.73;;;16.70;62.40;;;;;;5054155;28;20131;-30
2021/11/25 06:51:44;;;;;;;1.88;1.77;;;16.70;62.50;;;;;;5054981;28;20049;-28
2021/11/25 06:54:10;;;;;;;2.22;1.77;;;16.60;62.60;;;;;;5053854;28;20044;-27
2021/11/25 06:56:35;;;;;;;1.45;1.33;;;16.70;62.50;;;;;;5055217;28;20094;-27
2021/11/25 06:59:01;;;;;;;1.40;1.30;;;16.70;62.50;;;;;;5053149;28;20044;-27
2021/11/25 07:01:27;;;;;;;1.27;1.23;;;16.70;62.50;;;;;;5053551;28;20628;-30
2021/11/25 07:03:53;;;;;;;2.13;1.30;;;16.70;62.40;;;;;;5054506;28;20063;-23
2021/11/25 07:06:18;;;;;;;1.55;1.45;;;16.70;62.40;;;;;;5054016;28;20041;-27
2021/11/25 07:08:44;;;;;;;1.20;1.20;;;16.70;62.30;;;;;;5053830;28;20048;-26
2021/11/25 07:11:09;;;;;;;2.55;1.20;;;16.70;62.30;;;;;;5053834;28;20098;-32
2021/11/25 07:13:35;;;;;;;1.20;1.20;;;16.60;62.30;;;;;;5055015;28;20052;-27
2021/11/25 07:16:00;;;;;;;1.40;1.30;;;16.70;62.30;;;;;;5054788;28;20045;-27
2021/11/25 07:18:26;;;;;;;2.03;1.60;;;16.60;62.20;;;;;;5054060;28;20078;-25
2021/11/25 07:20:52;;;;;;;1.70;1.20;;;16.60;62.10;;;;;;5054389;28;20513;-31
2021/11/25 07:23:18;;;;;;;1.40;1.30;;;16.60;62.10;;;;;;5053431;28;20485;-29
2021/11/25 07:25:43;;;;;;;1.70;1.60;;;16.70;62.10;;;;;;5054245;28;20032;-25
2021/11/25 07:28:09;;;;;;;1.50;1.40;;;16.70;62.10;;;;;;5049016;28;20059;-26
2021/11/25 07:30:34;;;;;;;2.35;1.38;;;16.70;62.10;;;;;;5049767;28;20053;-28
2021/11/25 07:33:00;;;;;;;1.20;1.20;;;16.70;62.00;;;;;;5049008;28;21547;-29
2021/11/25 07:35:26;;;;;;;1.30;1.30;;;16.70;62.10;;;;;;5055069;28;20021;-26
2021/11/25 07:37:53;;;;;;;4.82;1.20;;;16.70;62.10;;;;;;5054477;28;20025;-30
2021/11/25 07:40:20;;;;;;;1.52;1.42;;;16.60;61.90;;;;;;5056333;28;20485;-31
2021/11/25 07:42:45;;;;;;;1.63;1.52;;;16.60;62.00;;;;;;5056120;28;20565;-27
2021/11/25 07:45:11;;;;;;;1.42;1.33;;;16.60;62.10;;;;;;5056635;28;20056;-25
2021/11/25 07:47:37;;;;;;;1.50;1.40;;;16.60;62.00;;;;;;5056354;28;20140;-28
2021/11/25 07:50:05;;;;;;;1.52;1.42;;;16.70;62.00;;;;;;5055634;28;20079;-32
2021/11/25 07:52:31;;;;;;;1.35;1.30;;;16.60;61.90;;;;;;5055156;28;20051;-33
2021/11/25 07:54:57;;;;;;;1.05;1.05;;;16.60;61.90;;;;;;5056473;28;20044;-23
2021/11/25 07:57:22;;;;;;;1.17;1.17;;;16.60;62.00;;;;;;5056441;28;20028;-28
2021/11/25 07:59:48;;;;;;;1.60;1.50;;;16.60;62.10;;;;;;5046091;28;20021;-25
2021/11/25 08:02:16;;;;;;;1.60;1.50;;;16.60;62.00;;;;;;5048923;28;20017;-29
2021/11/25 08:04:43;;;;;;;1.60;1.50;;;16.60;62.10;;;;;;5046283;28;20494;-31
2021/11/25 08:07:08;;;;;;;1.65;1.40;;;16.60;62.10;;;;;;5052034;28;20022;-30
2021/11/25 08:09:34;;;;;;;1.50;1.40;;;16.60;62.10;;;;;;5049881;28;20111;-28
2021/11/25 08:11:59;;;;;;;1.48;1.38;;;16.60;62.20;;;;;;5044244;28;20029;-27
2021/11/25 08:14:25;;;;;;;1.50;1.40;;;16.60;62.20;;;;;;5047217;28;20091;-29
2021/11/25 08:16:52;;;;;;;1.55;1.45;;;16.60;62.20;;;;;;5054864;28;20025;-25
2021/11/25 08:19:17;;;;;;;1.50;1.23;;;16.60;62.20;;;;;;5055872;28;20063;-25
2021/11/25 08:21:43;;;;;;;1.40;1.30;;;16.60;62.30;;;;;;5056215;28;20580;-27
2021/11/25 08:24:08;;;;;;;1.60;1.50;;;16.60;62.20;;;;;;5055571;28;20108;-27
2021/11/25 08:26:35;;;;;;;1.75;1.38;;;16.60;62.20;;;;;;5046700;28;20049;-24
2021/11/25 08:29:01;;;;;;;2.65;1.70;;;16.60;62.20;;;;;;5055858;28;20025;-25
2021/11/25 08:31:28;;;;;;;1.33;1.13;;;16.60;62.30;;;;;;5055947;28;20032;-30
2021/11/25 08:33:53;;;;;;;1.70;1.60;;;16.60;62.20;;;;;;5055635;28;20040;-25
2021/11/25 08:36:19;;;;;;;1.52;1.42;;;16.60;62.20;;;;;;5055572;28;20029;-29
2021/11/25 08:38:45;;;;;;;1.85;1.60;;;16.60;62.20;;;;;;5055297;28;20025;-23
2021/11/25 08:41:10;;;;;;;1.33;1.23;;;16.60;62.20;;;;;;5052160;28;20040;-28
2021/11/25 08:43:36;;;;;;;1.55;1.45;;;16.60;62.10;;;;;;5044004;28;20022;-29
2021/11/25 08:46:01;;;;;;;1.52;1.42;;;16.60;62.20;;;;;;5054133;28;20048;-30
2021/11/25 08:48:27;;;;;;;1.58;1.48;;;16.60;62.10;;;;;;5048829;28;20055;-27
2021/11/25 08:50:53;;;;;;;1.90;1.35;;;16.60;62.10;;;;;;5048380;28;20025;-25
2021/11/25 08:53:22;;;;;;;1.45;1.45;;;16.60;62.00;;;;;;5048263;28;20112;-23
2021/11/25 08:55:48;;;;;;;1.60;1.50;;;16.60;61.90;;;;;;5053727;28;20017;-29
2021/11/25 08:58:14;;;;;;;1.25;1.25;;;16.60;62.00;;;;;;5055424;28;20032;-27
2021/11/25 09:00:39;;;;;;;1.30;1.20;;;16.60;61.90;;;;;;5055547;28;20470;-24
2021/11/25 09:03:05;;;;;;;1.55;1.45;;;16.60;61.90;;;;;;5054212;28;20025;-28
2021/11/25 09:05:32;;;;;;;4.65;1.17;;;16.60;61.90;;;;;;5045360;28;20628;-24
2021/11/25 09:07:58;;;;;;;1.30;1.30;;;16.60;61.90;;;;;;5046171;28;20426;-27
2021/11/25 09:10:23;;;;;;;1.20;1.20;;;16.60;61.90;;;;;;5055234;28;20017;-25
2021/11/25 09:12:50;;;;;;;1.23;1.13;;;16.60;61.90;;;;;;5052043;28;20797;-22
2021/11/25 09:15:15;;;;;;;1.23;1.15;;;16.60;61.90;;;;;;5055657;28;20490;-27
2021/11/25 09:17:41;;;;;;;1.83;1.10;;;16.60;61.90;;;;;;5054161;28;20052;-27
2021/11/25 09:20:07;;;;;;;1.35;1.20;;;16.60;62.00;;;;;;5055079;28;20045;-24
2021/11/25 09:22:33;;;;;;;1.38;1.30;;;16.60;61.90;;;;;;5054863;28;20029;-27
2021/11/25 09:24:58;;;;;;;1.25;1.20;;;16.60;61.90;;;;;;5055249;28;20040;-27
2021/11/25 09:27:24;;;;;;;1.30;1.20;;;16.60;61.80;;;;;;5055097;28;20017;-29
2021/11/25 09:29:49;;;;;;;1.17;1.17;;;16.60;61.90;;;;;;5055123;28;20025;-33
2021/11/25 09:32:15;;;;;;;1.42;1.33;;;16.60;61.90;;;;;;5055243;28;20559;-25
2021/11/25 09:34:41;;;;;;;1.50;1.40;;;16.60;61.90;;;;;;5054386;28;20037;-26
2021/11/25 09:37:07;;;;;;;1.08;1.08;;;16.60;61.90;;;;;;5054711;28;20024;-25
2021/11/25 09:39:33;;;;;;;1.30;1.20;;;16.60;62.00;;;;;;5054695;28;20029;-28
2021/11/25 09:41:58;;;;;;;1.63;1.33;;;16.60;61.90;;;;;;5055099;28;20032;-26
2021/11/25 09:44:24;;;;;;;1.38;1.38;;;16.60;61.90;;;;;;5054889;28;20496;-26
2021/11/25 09:46:52;;;;;;;1.30;1.30;;;16.60;61.90;;;;;;5055159;28;20055;-30
2021/11/25 09:49:20;;;;;;;2.03;1.20;;;16.60;61.90;;;;;;5055985;28;20055;-29
2021/11/25 09:51:46;;;;;;;1.02;1.02;;;16.60;61.80;;;;;;5056052;28;20024;-29
2021/11/25 09:54:11;;;;;;;1.10;1.10;;;16.60;61.80;;;;;;5054813;28;20109;-28
2021/11/25 09:56:37;;;;;;;1.20;1.20;;;16.60;61.70;;;;;;5056102;28;20108;-28
2021/11/25 09:59:03;;;;;;;1.40;1.30;;;16.60;61.70;;;;;;5056038;28;20374;-27
2021/11/25 10:01:28;;;;;;;1.48;1.27;;;16.60;61.80;;;;;;5056117;28;20021;-25
2021/11/25 10:03:54;;;;;;;1.35;1.25;;;16.60;61.70;;;;;;5055918;28;20033;-32
2021/11/25 10:06:36;;;;;;;1.33;1.33;;;16.60;61.60;;;;;;5055694;28;20435;-25
2021/11/25 10:09:05;;;;;;;1.10;1.10;;;16.60;61.60;;;;;;5059403;28;20108;-27
2021/11/25 10:11:37;;;;;;;1.25;1.15;;;16.60;61.60;;;;;;5059443;28;20078;-25
2021/11/25 10:14:08;;;;;;;1.05;1.05;;;16.60;61.60;;;;;;5059275;28;20100;-27
2021/11/25 10:16:41;;;;;;;1.08;1.08;;;16.60;61.70;;;;;;5059491;28;20430;-26
2021/11/25 10:19:15;;;;;;;1.10;1.10;;;16.60;61.50;;;;;;5059335;28;20025;-29
2021/11/25 10:21:42;;;;;;;1.20;1.10;;;16.60;61.50;;;;;;5059399;28;20405;-26
2021/11/25 10:24:08;;;;;;;1.00;1.00;;;16.60;61.70;;;;;;5059190;28;20395;-30
2021/11/25 10:26:34;;;;;;;1.65;1.10;;;16.60;61.50;;;;;;5059303;28;20025;-27
2021/11/25 10:29:07;;;;;;;1.33;1.30;;;16.60;61.60;;;;;;5058988;28;20444;-27
2021/11/25 10:31:38;;;;;;;1.33;1.30;;;16.60;61.70;;;;;;5059198;28;20520;-25
2021/11/25 10:34:16;;;;;;;1.25;1.25;;;16.60;61.60;;;;;;5059023;28;20017;-26
2021/11/25 10:41:47;;;;;;;0.90;0.90;;;16.60;61.50;;;;;;5079279;28;20035;-29
2021/11/25 10:44:18;;;;;;;1.67;1.00;;;16.60;61.50;;;;;;5076530;28;20032;-22
2021/11/25 10:46:55;;;;;;;0.90;0.90;;;16.60;61.50;;;;;;5058702;28;20045;-29
2021/11/25 10:49:46;;;;;;;1.33;1.23;;;16.60;61.50;;;;;;5058737;28;20182;-27
2021/11/25 10:52:28;;;;;;;1.33;1.08;;;16.60;61.40;;;;;;5058712;28;20025;-31
2021/11/25 10:55:04;;;;;;;0.88;0.88;;;16.50;61.40;;;;;;5058508;28;20033;-25
2021/11/25 10:57:40;;;;;;;1.20;1.20;;;16.50;61.40;;;;;;5058756;28;20024;-24
2021/11/25 11:00:32;;;;;;;0.90;0.90;;;16.50;61.30;;;;;;5058511;28;20067;-22
2021/11/25 11:03:08;;;;;;;0.93;0.93;;;16.60;61.40;;;;;;5047458;28;20437;-31
2021/11/25 11:06:02;;;;;;;0.95;0.95;;;16.50;61.40;;;;;;5058453;28;20029;-24
2021/11/25 11:08:29;;;;;;;0.70;0.70;;;16.50;61.40;;;;;;5058207;28;20025;-26
2021/11/25 11:11:05;;;;;;;0.85;0.85;;;16.50;61.40;;;;;;5058512;28;20521;-26
2021/11/25 11:13:37;;;;;;;1.20;1.20;;;16.50;61.40;;;;;;5058394;28;20013;-26
2021/11/25 11:18:56;;;;;;;1.00;1.00;;;16.50;61.40;;;;;;5058141;28;20029;-27
2021/11/25 11:21:40;;;;;;;1.00;1.00;;;16.50;61.40;;;;;;5058329;28;20040;-26
2021/11/25 11:24:08;;;;;;;0.98;0.98;;;16.50;61.40;;;;;;5058128;28;20017;-30
2021/11/25 11:26:35;;;;;;;1.25;1.00;;;16.50;61.40;;;;;;5058165;28;20116;-27
2021/11/25 11:29:01;;;;;;;1.00;1.00;;;16.50;61.30;;;;;;5058240;28;20029;-24
2021/11/25 11:31:26;;;;;;;0.95;0.95;;;16.50;61.30;;;;;;5058129;28;20059;-24
2021/11/25 11:33:52;;;;;;;0.70;0.70;;;16.50;61.40;;;;;;5057990;28;20017;-30
2021/11/25 11:36:20;;;;;;;1.00;1.00;;;16.50;61.30;;;;;;5063989;28;20079;-29
2021/11/25 11:38:47;;;;;;;1.00;1.00;;;16.50;61.10;;;;;;5077859;28;20028;-26
2021/11/25 11:41:12;;;;;;;1.00;1.00;;;16.50;61.20;;;;;;5060168;28;20028;-22
2021/11/25 11:43:38;;;;;;;0.93;0.93;;;16.50;61.20;;;;;;5059943;28;20377;-24
2021/11/25 11:46:04;;;;;;;0.95;0.95;;;16.50;61.20;;;;;;5059364;28;20061;-27
2021/11/25 11:48:30;;;;;;;0.70;0.70;;;16.50;61.30;;;;;;5057580;28;20064;-26
2021/11/25 11:50:56;;;;;;;0.90;0.90;;;16.50;61.40;;;;;;5039723;28;20104;-24
2021/11/25 11:53:27;;;;;;;0.80;0.80;;;16.50;61.30;;;;;;5057290;28;20053;-32
2021/11/25 11:55:58;;;;;;;0.85;0.85;;;16.50;61.30;;;;;;5039963;28;20094;-31
2021/11/25 11:58:39;;;;;;;0.93;0.93;;;16.50;61.20;;;;;;5057777;28;20029;-27
2021/11/25 12:01:17;;;;;;;1.20;1.10;;;16.50;61.30;;;;;;5057447;28;20033;-30
2021/11/25 12:03:47;;;;;;;0.80;0.80;;;16.50;61.30;;;;;;5057426;28;20017;-32
2021/11/25 12:06:31;;;;;;;1.05;1.05;;;16.50;61.30;;;;;;5057328;28;20029;-26
2021/11/25 12:08:56;;;;;;;1.20;1.03;;;16.50;61.20;;;;;;5057107;28;20025;-28
2021/11/25 12:11:22;;;;;;;1.20;1.20;;;16.50;61.30;;;;;;5057359;28;20312;-24
2021/11/25 12:13:56;;;;;;;1.85;1.00;;;16.50;61.30;;;;;;5057425;28;20112;-27
2021/11/25 12:16:22;;;;;;;1.10;0.82;;;16.50;61.30;;;;;;5057262;28;20053;-26
2021/11/25 12:18:53;;;;;;;0.90;0.90;;;16.50;61.30;;;;;;5057407;28;20036;-27
2021/11/25 12:21:46;;;;;;;1.00;1.00;;;16.50;61.20;;;;;;5057104;28;20049;-23
2021/11/25 12:24:19;;;;;;;0.82;0.82;;;16.50;61.20;;;;;;5056915;28;20562;-30
2021/11/25 12:27:14;;;;;;;1.05;1.05;;;16.50;61.20;;;;;;5056963;28;20040;-28
2021/11/25 12:29:47;;;;;;;0.85;0.85;;;16.60;61.20;;;;;;5056485;28;20108;-30
2021/11/25 12:32:27;;;;;;;0.93;0.93;;;16.50;61.20;;;;;;5057015;28;20025;-32
2021/11/25 12:34:57;;;;;;;0.90;0.90;;;16.50;61.40;;;;;;5056356;28;20029;-28
2021/11/25 12:37:41;;;;;;;0.77;0.77;;;16.50;61.30;;;;;;5072891;28;20070;-31
2021/11/25 12:40:22;;;;;;;1.00;1.00;;;16.50;61.30;;;;;;5076862;28;20025;-24
2021/11/25 12:43:08;;;;;;;0.90;0.90;;;16.60;61.30;;;;;;5076978;28;20031;-27
2021/11/25 12:45:44;;;;;;;0.75;0.75;;;16.50;61.20;;;;;;5063075;28;20021;-30
2021/11/25 12:48:13;;;;;;;0.70;0.70;;;16.60;61.20;;;;;;5056647;28;20044;-25
2021/11/25 12:50:42;;;;;;;0.77;0.77;;;16.60;61.20;;;;;;5055213;28;20091;-32
2021/11/25 12:53:31;;;;;;;1.42;0.80;;;16.50;61.20;;;;;;5055247;28;20017;-26
2021/11/25 12:56:02;;;;;;;0.80;0.80;;;16.60;61.10;;;;;;5044633;28;20385;-28
2021/11/25 12:58:36;;;;;;;0.82;0.82;;;16.50;61.10;;;;;;5055135;28;20083;-34
2021/11/25 13:01:02;;;;;;;0.73;0.73;;;16.50;61.20;;;;;;5055757;28;20025;-30
2021/11/25 13:03:28;;;;;;;0.90;0.90;;;16.50;61.30;;;;;;5056073;28;20101;-24